Time;durP1;ratioP1;P1;durP2;ratioP2;P2;SDS_P1;SDS_P2;PMS_P1;PMS_P2;Temp;Humidity;BMP_temperature;BMP_pressure;BME280_temperature;BME280_humidity;BME280_pressure;Samples;Min_cycle;Max_cycle;Signal;HPM_P1;HPM_P2
2022/04/11 00:01:26;;;;;;;;;9.75;7.25;;;;;10.80;44.56;101110.84;5017343;28;45422;-72
2022/04/11 00:03:51;;;;;;;;;8.50;7.00;;;;;10.83;44.87;101126.56;5015671;28;45311;-70
2022/04/11 00:06:17;;;;;;;;;6.50;6.00;;;;;10.70;44.60;101101.13;5016478;28;45345;-70
2022/04/11 00:08:42;;;;;;;;;5.50;5.50;;;;;10.74;44.73;101110.78;5016595;28;45263;-70
2022/04/11 00:11:08;;;;;;;;;6.50;4.75;;;;;10.71;44.94;101116.00;5017083;28;45451;-70
2022/04/11 00:13:34;;;;;;;;;6.25;6.25;;;;;10.48;45.08;101077.41;5017681;28;45498;-71
2022/04/11 00:15:59;;;;;;;;;5.25;5.00;;;;;10.65;44.82;101108.97;5019884;28;46053;-71
2022/04/11 00:18:26;;;;;;;;;3.50;3.50;;;;;10.69;45.06;101117.75;5019957;28;45358;-71
2022/04/11 00:20:57;;;;;;;;;5.75;4.75;;;;;10.61;45.58;101100.22;5025401;28;45502;-70
2022/04/11 00:23:22;;;;;;;;;7.00;5.50;;;;;10.73;44.90;101109.03;5035031;28;45373;-71
2022/04/11 00:25:48;;;;;;;;;7.00;5.00;;;;;10.71;45.27;101109.03;5019950;28;45292;-69
2022/04/11 00:28:14;;;;;;;;;8.25;6.25;;;;;10.53;45.10;101078.31;5020378;28;45320;-70
2022/04/11 00:30:40;;;;;;;;;5.50;5.50;;;;;10.70;45.15;101103.75;5035725;28;45470;-70
2022/04/11 00:33:06;;;;;;;;;5.50;5.50;;;;;10.66;45.40;101107.25;5020345;28;45201;-70
2022/04/11 00:35:32;;;;;;;;;4.00;3.75;;;;;10.64;45.26;101080.16;5019485;28;45418;-71
2022/04/11 00:37:58;;;;;;;;;7.75;6.75;;;;;10.58;45.07;101070.50;5034873;28;45476;-71
2022/04/11 00:40:30;;;;;;;;;6.25;4.75;;;;;10.56;45.51;101077.50;5020072;28;45444;-70
2022/04/11 00:42:56;;;;;;;;;6.75;5.00;;;;;10.54;45.61;101068.75;5021334;28;45439;-70
2022/04/11 00:45:21;;;;;;;;;5.00;5.00;;;;;10.56;45.54;101062.66;5020538;28;45703;-70
2022/04/11 00:47:47;;;;;;;;;7.50;5.75;;;;;10.50;45.41;101059.97;5020372;28;45403;-70
2022/04/11 00:50:14;;;;;;;;;7.25;5.75;;;;;10.44;45.55;101049.47;5019567;28;45523;-71
2022/04/11 00:52:45;;;;;;;;;5.00;5.00;;;;;10.50;45.64;101051.25;5019887;28;45280;-71
2022/04/11 00:55:13;;;;;;;;;3.50;3.50;;;;;10.48;46.26;101043.34;5019374;28;46521;-72
2022/04/11 00:57:39;;;;;;;;;6.50;6.50;;;;;10.24;45.72;101006.50;5019457;28;45398;-71
2022/04/11 01:00:07;;;;;;;;;4.50;4.50;;;;;10.19;46.13;101002.09;5019124;28;45564;-70
2022/04/11 01:02:33;;;;;;;;;4.75;4.75;;;;;10.36;45.74;101035.41;5019431;28;45306;-70
2022/04/11 01:04:59;;;;;;;;;5.50;5.50;;;;;10.36;45.95;101038.03;5019453;28;45304;-70
2022/04/11 01:07:25;;;;;;;;;5.25;5.25;;;;;10.36;46.08;101036.28;5019041;28;45264;-71
2022/04/11 01:09:52;;;;;;;;;6.50;6.00;;;;;10.16;46.18;101009.06;5019692;28;45509;-70
2022/04/11 01:12:18;;;;;;;;;5.75;5.75;;;;;10.18;45.95;101012.56;5018958;28;45435;-71
2022/04/11 01:14:44;;;;;;;;;5.00;5.00;;;;;10.25;46.21;101022.22;5018463;28;46194;-71
2022/04/11 01:17:10;;;;;;;;;7.00;5.75;;;;;10.14;46.17;100995.94;5018717;28;45593;-71
2022/04/11 01:19:36;;;;;;;;;5.00;4.25;;;;;9.99;45.96;100972.28;5018873;28;45490;-72
2022/04/11 01:22:02;;;;;;;;;6.00;5.00;;;;;9.79;46.48;100950.31;5018684;28;45502;-72
2022/04/11 01:24:32;;;;;;;;;4.75;4.00;;;;;10.14;46.47;101001.19;5017889;28;45439;-72
2022/04/11 01:26:58;;;;;;;;;6.75;4.00;;;;;10.14;46.44;101001.19;5017139;28;45601;-71
2022/04/11 01:29:24;;;;;;;;;3.75;3.75;;;;;9.69;46.48;100918.84;5018871;28;45477;-74
2022/04/11 01:31:50;;;;;;;;;6.25;5.00;;;;;10.12;46.43;100991.56;5018789;28;45450;-71
2022/04/11 01:34:16;;;;;;;;;4.50;4.50;;;;;10.12;46.78;100997.69;5016843;28;46347;-71
2022/04/11 01:36:42;;;;;;;;;9.50;6.00;;;;;10.10;46.30;100988.94;5018746;28;45245;-70
2022/04/11 01:39:11;;;;;;;;;6.75;6.75;;;;;10.08;46.22;100982.81;5017248;28;45300;-71
2022/04/11 01:41:37;;;;;;;;;12.00;5.00;;;;;10.08;46.15;100984.56;5018597;28;45383;-71
2022/04/11 01:44:02;;;;;;;;;5.50;5.50;;;;;10.02;46.37;100974.06;5018402;28;46004;-71
2022/04/11 01:46:32;;;;;;;;;5.50;4.50;;;;;10.01;46.14;100981.00;5024268;28;45429;-71
2022/04/11 01:48:57;;;;;;;;;4.50;3.50;;;;;9.63;46.82;100918.75;5038183;28;45460;-70
2022/04/11 01:51:23;;;;;;;;;7.00;4.50;;;;;9.94;46.45;100972.25;5038294;28;45492;-71
2022/04/11 01:53:48;;;;;;;;;4.75;4.75;;;;;9.90;46.53;100959.13;5038130;28;45700;-70
2022/04/11 01:56:15;;;;;;;;;5.25;3.50;;;;;9.96;46.52;100956.53;5038267;28;45426;-71
2022/04/11 01:58:43;;;;;;;;;4.00;4.00;;;;;10.00;46.12;100975.78;5038152;28;45405;-71
2022/04/11 02:01:09;;;;;;;;;6.25;4.75;;;;;9.95;46.37;100967.88;5038212;28;45464;-71
2022/04/11 02:03:35;;;;;;;;;5.50;4.00;;;;;9.73;46.54;100925.84;5025299;28;46130;-71
2022/04/11 02:06:00;;;;;;;;;3.00;3.00;;;;;9.96;46.04;100954.78;5018363;28;45418;-72
2022/04/11 02:08:26;;;;;;;;;3.25;3.25;;;;;9.96;46.01;100962.66;5020301;28;45415;-71
2022/04/11 02:10:56;;;;;;;;;4.00;3.00;;;;;9.97;45.86;100960.94;5018166;28;45417;-71
2022/04/11 02:13:21;;;;;;;;;4.00;4.00;;;;;10.00;45.56;100960.94;5017787;28;45497;-70
2022/04/11 02:15:47;;;;;;;;;5.75;4.00;;;;;10.00;45.66;100957.47;5017921;28;45313;-70
2022/04/11 02:18:13;;;;;;;;;5.25;5.00;;;;;9.47;45.20;100875.94;5018587;28;45368;-71
2022/04/11 02:20:39;;;;;;;;;4.50;4.00;;;;;9.92;45.45;100954.78;5018039;28;45454;-71
2022/04/11 02:23:04;;;;;;;;;6.50;4.25;;;;;9.59;45.37;100897.84;5019123;28;46124;-71
2022/04/11 02:25:34;;;;;;;;;3.25;3.25;;;;;9.84;45.30;100938.13;5037818;28;45419;-70
2022/04/11 02:28:00;;;;;;;;;4.00;4.00;;;;;9.52;45.41;100884.69;5029974;28;45485;-71
2022/04/11 02:30:27;;;;;;;;;2.75;2.75;;;;;9.81;45.50;100933.75;5037455;28;45365;-71
2022/04/11 02:32:54;;;;;;;;;3.75;3.75;;;;;9.82;45.36;100921.53;5019917;28;45253;-70
2022/04/11 02:35:19;;;;;;;;;4.50;4.00;;;;;9.77;45.33;100922.41;5023047;28;45340;-70
2022/04/11 02:37:45;;;;;;;;;3.50;3.50;;;;;9.77;44.91;100931.97;5023506;28;45474;-71
2022/04/11 02:40:15;;;;;;;;;2.75;2.75;;;;;9.62;44.91;100908.31;5021280;28;45391;-71
2022/04/11 02:42:42;;;;;;;;;4.75;4.00;;;;;9.68;45.04;100924.03;5021564;28;46278;-71
2022/04/11 02:45:13;;;;;;;;;7.25;5.75;;;;;9.62;45.17;100924.88;5021017;28;45430;-71
2022/04/11 02:47:39;;;;;;;;;9.25;4.25;;;;;9.21;44.93;100862.63;5017649;28;45502;-71
2022/04/11 02:50:12;;;;;;;;;5.25;4.00;;;;;9.18;45.25;100862.56;5032990;28;45640;-69
2022/04/11 02:52:37;;;;;;;;;4.50;4.50;;;;;9.52;45.52;100921.31;5017550;28;45476;-69
2022/04/11 02:55:04;;;;;;;;;4.00;3.50;;;;;9.45;45.04;100895.97;5016509;28;45426;-72
2022/04/11 02:57:29;;;;;;;;;3.25;2.75;;;;;9.08;45.18;100832.88;5017379;28;45477;-71
2022/04/11 02:59:56;;;;;;;;;4.00;4.00;;;;;9.48;45.05;100892.50;5017143;28;45438;-71
2022/04/11 03:02:22;;;;;;;;;5.50;4.00;;;;;9.10;45.05;100833.78;5017374;28;46417;-71
2022/04/11 03:04:48;;;;;;;;;5.25;3.00;;;;;9.45;44.98;100887.25;5017646;28;45430;-71
2022/04/11 03:07:13;;;;;;;;;4.00;3.50;;;;;9.36;44.97;100881.94;5017251;28;45509;-71
2022/04/11 03:09:39;;;;;;;;;5.50;4.25;;;;;9.29;45.17;100863.56;5032693;28;45483;-70
2022/04/11 03:12:06;;;;;;;;;8.25;3.25;;;;;9.41;45.15;100878.50;5017172;28;46396;-71
2022/04/11 03:14:31;;;;;;;;;7.50;3.75;;;;;9.40;45.14;100878.50;5018210;28;45603;-71
2022/04/11 03:16:57;;;;;;;;;4.75;4.75;;;;;9.21;45.25;100857.41;5017327;28;45292;-70
2022/04/11 03:19:23;;;;;;;;;4.75;4.25;;;;;9.31;44.99;100864.47;5017586;28;45288;-71
2022/04/11 03:21:49;;;;;;;;;3.75;3.75;;;;;9.28;45.21;100866.19;5037690;28;46903;-70
2022/04/11 03:24:14;;;;;;;;;2.50;2.50;;;;;9.26;45.50;100862.69;5029041;28;45443;-70
2022/04/11 03:26:40;;;;;;;;;4.00;4.00;;;;;9.29;45.44;100870.53;5029231;28;45433;-70
2022/04/11 03:29:06;;;;;;;;;3.75;3.75;;;;;9.29;45.06;100876.63;5023583;28;45510;-72
2022/04/11 03:31:31;;;;;;;;;4.00;4.00;;;;;9.28;45.42;100874.03;5015950;28;45733;-70
2022/04/11 03:34:12;;;;;;;;;4.00;4.00;;;;;9.21;45.24;100864.38;5016549;28;45367;-70
2022/04/11 03:36:38;;;;;;;;;6.75;5.50;;;;;9.24;45.46;100882.69;5015104;28;45446;-70
2022/04/11 03:39:03;;;;;;;;;4.00;4.00;;;;;9.24;45.31;100877.47;5017058;28;45580;-71
2022/04/11 03:41:29;;;;;;;;;4.00;4.00;;;;;9.22;45.51;100873.97;5016370;28;45612;-71
2022/04/11 03:43:54;;;;;;;;;3.75;2.75;;;;;9.23;45.26;100873.97;5016449;28;45528;-70
2022/04/11 03:46:20;;;;;;;;;4.25;4.25;;;;;9.17;45.38;100863.47;5016984;28;45315;-70
2022/04/11 03:48:45;;;;;;;;;4.75;4.75;;;;;9.10;45.17;100841.59;5020291;28;45323;-70
2022/04/11 03:51:11;;;;;;;;;7.00;4.00;;;;;9.15;45.07;100851.25;5020353;28;45382;-70
2022/04/11 03:53:37;;;;;;;;;6.50;6.00;;;;;9.15;45.49;100859.09;5018779;28;45319;-70
2022/04/11 03:56:02;;;;;;;;;3.50;3.50;;;;;9.06;45.39;100844.19;5020091;28;45273;-69
2022/04/11 03:58:28;;;;;;;;;4.00;4.00;;;;;9.05;45.75;100845.06;5020377;28;45284;-71
2022/04/11 04:00:53;;;;;;;;;6.75;6.75;;;;;9.06;45.62;100841.56;5020439;28;45490;-70
2022/04/11 04:03:19;;;;;;;;;5.25;2.50;;;;;8.95;46.06;100835.38;5020064;28;45367;-70
2022/04/11 04:05:46;;;;;;;;;3.25;3.25;;;;;8.81;45.85;100814.34;5020307;28;45377;-70
2022/04/11 04:08:13;;;;;;;;;4.00;4.00;;;;;8.92;45.47;100825.75;5035547;28;45359;-71
2022/04/11 04:10:43;;;;;;;;;4.00;4.00;;;;;8.85;46.22;100810.88;5019823;28;46074;-72
2022/04/11 04:13:08;;;;;;;;;4.75;4.50;;;;;8.97;45.85;100831.00;5017858;28;45514;-71
2022/04/11 04:15:34;;;;;;;;;3.75;3.75;;;;;8.64;46.09;100777.59;5019509;28;45480;-71
2022/04/11 04:17:59;;;;;;;;;5.75;5.00;;;;;8.89;46.17;100823.97;5019744;28;45251;-71
2022/04/11 04:20:26;;;;;;;;;7.75;6.50;;;;;8.90;45.93;100825.75;5019553;28;46184;-70
2022/04/11 04:22:57;;;;;;;;;5.25;5.25;;;;;8.90;46.31;100830.97;5019991;28;45314;-71
2022/04/11 04:25:23;;;;;;;;;3.75;3.75;;;;;8.88;45.96;100822.25;5019896;28;45423;-71
2022/04/11 04:27:49;;;;;;;;;6.25;6.00;;;;;8.82;46.07;100813.47;5019958;28;45411;-71
2022/04/11 04:30:14;;;;;;;;;3.25;3.25;;;;;8.82;45.97;100818.69;5019261;28;45332;-72
2022/04/11 04:32:41;;;;;;;;;7.25;5.75;;;;;8.74;46.02;100797.72;5019281;28;45314;-71
2022/04/11 04:35:08;;;;;;;;;5.50;3.75;;;;;8.85;45.81;100816.09;5019561;28;45253;-72
2022/04/11 04:37:33;;;;;;;;;6.25;5.50;;;;;8.75;45.72;100802.06;5019882;28;45466;-71
2022/04/11 04:39:59;;;;;;;;;5.25;5.00;;;;;8.82;46.22;100813.47;5019178;28;46095;-70
2022/04/11 04:42:26;;;;;;;;;6.00;6.00;;;;;8.82;45.90;100803.88;5019962;28;45260;-70
2022/04/11 04:44:52;;;;;;;;;7.75;6.00;;;;;8.73;45.80;100785.50;5019712;28;45528;-71
2022/04/11 04:47:25;;;;;;;;;5.75;5.75;;;;;8.66;45.88;100797.66;5019610;28;45507;-70
2022/04/11 04:49:51;;;;;;;;;4.25;4.25;;;;;8.61;46.45;100806.25;5018526;28;47716;-69
2022/04/11 04:52:17;;;;;;;;;13.50;6.75;;;;;8.44;46.74;100791.28;5019020;28;45434;-70
2022/04/11 04:54:43;;;;;;;;;5.75;5.25;;;;;8.38;46.63;100772.06;5018889;28;45547;-71
2022/04/11 04:57:09;;;;;;;;;6.75;4.50;;;;;8.43;46.60;100786.06;5018890;28;45576;-72
2022/04/11 04:59:35;;;;;;;;;6.00;4.50;;;;;8.63;46.24;100813.25;5018104;28;46344;-70
2022/04/11 05:02:01;;;;;;;;;5.25;5.25;;;;;8.43;46.67;100786.06;5034286;28;45382;-71
2022/04/11 05:04:27;;;;;;;;;4.75;4.75;;;;;8.66;46.75;100815.03;5019198;28;45260;-71
2022/04/11 05:06:53;;;;;;;;;6.50;5.50;;;;;8.38;46.32;100770.31;5019461;28;45359;-70
2022/04/11 05:09:18;;;;;;;;;3.75;3.75;;;;;8.67;46.69;100816.78;5018889;28;46002;-70
2022/04/11 05:11:44;;;;;;;;;7.75;5.25;;;;;8.77;46.19;100833.44;5018869;28;45265;-69
2022/04/11 05:14:10;;;;;;;;;8.00;6.75;;;;;8.73;46.44;100824.69;5018724;28;45274;-70
2022/04/11 05:16:35;;;;;;;;;5.50;5.50;;;;;8.76;46.28;100827.34;5019194;28;45332;-69
2022/04/11 05:19:02;;;;;;;;;7.00;7.00;;;;;8.70;46.49;100817.69;5018926;28;45970;-70
2022/04/11 05:21:28;;;;;;;;;6.75;4.75;;;;;8.67;46.35;100807.22;5018826;28;45469;-71
2022/04/11 05:23:54;;;;;;;;;6.50;6.00;;;;;8.66;46.21;100812.41;5020044;28;45477;-71
2022/04/11 05:26:19;;;;;;;;;7.50;5.75;;;;;8.70;46.26;100817.69;5034224;28;45375;-71
2022/04/11 05:28:48;;;;;;;;;6.75;6.00;;;;;8.56;46.41;100784.47;5018814;28;45439;-71
2022/04/11 05:31:15;;;;;;;;;6.75;6.75;;;;;8.63;46.52;100801.94;5018539;28;45181;-71
2022/04/11 05:33:41;;;;;;;;;6.75;5.50;;;;;8.40;46.74;100760.81;5034755;28;45341;-72
2022/04/11 05:36:07;;;;;;;;;5.25;5.25;;;;;8.57;46.78;100794.06;5019506;28;45464;-72
2022/04/11 05:38:32;;;;;;;;;7.25;5.50;;;;;8.65;46.70;100808.06;5018148;28;45708;-71
2022/04/11 05:40:58;;;;;;;;;6.25;5.75;;;;;8.03;46.34;100697.72;5018663;28;45455;-71
2022/04/11 05:43:24;;;;;;;;;5.00;4.00;;;;;8.45;46.52;100774.78;5018811;28;45541;-72
2022/04/11 05:45:50;;;;;;;;;8.75;6.50;;;;;8.64;46.83;100808.94;5019185;28;45464;-70
2022/04/11 05:48:15;;;;;;;;;8.75;8.25;;;;;8.59;46.29;100801.06;5018297;28;46484;-72
2022/04/11 05:50:41;;;;;;;;;5.00;5.00;;;;;8.57;46.69;100800.16;5018187;28;45375;-71
2022/04/11 05:53:20;;;;;;;;;6.00;5.50;;;;;8.39;46.84;100771.19;5018411;28;45501;-68
2022/04/11 05:56:18;;;;;;;;;7.50;5.50;;;;;8.55;46.91;100798.38;5018117;28;45367;-71
2022/04/11 05:58:44;;;;;;;;;7.25;7.25;;;;;8.49;46.63;100783.50;5009560;28;46429;-70
2022/04/11 06:01:17;;;;;;;;;7.00;7.00;;;;;8.62;46.37;100819.34;5023746;28;45453;-69
2022/04/11 06:03:52;;;;;;;;;9.75;7.50;;;;;8.63;46.80;100817.59;5037881;28;45432;-72
2022/04/11 06:06:22;;;;;;;;;7.25;6.50;;;;;8.72;46.67;100816.84;5036847;28;45620;-70
2022/04/11 06:08:48;;;;;;;;;6.75;6.75;;;;;8.79;46.64;100809.09;5027305;28;45339;-71
2022/04/11 06:11:13;;;;;;;;;7.00;7.00;;;;;8.70;46.14;100783.75;5016515;28;45374;-72
2022/04/11 06:13:45;;;;;;;;;5.50;5.50;;;;;8.61;46.46;100767.09;5018255;28;45319;-74
2022/04/11 06:16:14;;;;;;;;;6.00;5.50;;;;;8.85;46.31;100806.56;5033136;28;45448;-71
2022/04/11 06:18:42;;;;;;;;;8.75;7.25;;;;;8.43;45.77;100729.50;5028513;28;45893;-71
2022/04/11 06:21:09;;;;;;;;;7.75;7.25;;;;;8.97;45.84;100816.25;5017277;28;45462;-71
2022/04/11 06:23:35;;;;;;;;;7.50;7.50;;;;;8.93;45.82;100813.59;5017986;28;45449;-71
2022/04/11 06:26:03;;;;;;;;;8.75;7.75;;;;;8.92;46.22;100817.91;5018371;28;45348;-72
2022/04/11 06:28:29;;;;;;;;;6.75;5.75;;;;;8.70;45.92;100780.25;5018033;28;46245;-70
2022/04/11 06:30:55;;;;;;;;;5.75;5.75;;;;;8.94;45.97;100821.41;5017386;28;45540;-70
2022/04/11 06:33:21;;;;;;;;;8.25;8.00;;;;;8.78;46.06;100789.06;5017509;28;45553;-71
2022/04/11 06:35:46;;;;;;;;;5.50;5.50;;;;;9.03;46.03;100804.97;5018163;28;45515;-71
2022/04/11 06:38:12;;;;;;;;;5.75;5.75;;;;;8.99;45.93;100793.59;5017173;28;45530;-71
2022/04/11 06:40:38;;;;;;;;;11.25;9.00;;;;;9.16;45.50;100806.84;5017573;28;45453;-70
2022/04/11 06:43:04;;;;;;;;;8.25;7.50;;;;;9.15;45.34;100802.47;5017915;28;45378;-71
2022/04/11 06:45:30;;;;;;;;;9.50;7.75;;;;;9.07;45.64;100785.84;5018218;28;45440;-71
2022/04/11 06:47:57;;;;;;;;;8.00;8.00;;;;;9.08;45.51;100777.13;5019350;28;45561;-71
2022/04/11 06:50:35;;;;;;;;;8.00;8.00;;;;;8.91;45.38;100741.28;5021586;28;45600;-71
2022/04/11 06:53:04;;;;;;;;;10.75;8.50;;;;;9.20;45.55;100787.69;5018372;28;45356;-72
2022/04/11 06:55:32;;;;;;;;;7.50;7.50;;;;;9.19;45.01;100788.56;5018382;28;45470;-71
2022/04/11 06:58:04;;;;;;;;;8.75;8.25;;;;;9.20;45.29;100786.81;5017791;28;45986;-70
2022/04/11 07:00:29;;;;;;;;;9.00;8.50;;;;;9.16;45.90;100775.47;5019124;28;45355;-71
2022/04/11 07:02:55;;;;;;;;;9.75;8.75;;;;;9.13;45.09;100754.53;5021782;28;45570;-72
2022/04/11 07:05:21;;;;;;;;;7.00;7.00;;;;;9.26;45.33;100777.31;5022412;28;45491;-71
2022/04/11 07:07:46;;;;;;;;;7.25;7.25;;;;;9.27;45.40;100773.81;5022461;28;45474;-71
2022/04/11 07:10:12;;;;;;;;;8.75;8.75;;;;;9.31;44.94;100772.97;5022222;28;45480;-71
2022/04/11 07:12:39;;;;;;;;;8.75;7.00;;;;;9.38;45.20;100771.28;5021572;28;45371;-70
2022/04/11 07:15:06;;;;;;;;;6.25;6.25;;;;;9.45;45.13;100764.38;5021738;28;45304;-69
2022/04/11 07:17:34;;;;;;;;;6.50;6.00;;;;;9.47;45.26;100752.19;5021107;28;45308;-69
2022/04/11 07:20:02;;;;;;;;;8.00;8.00;;;;;9.57;45.01;100747.91;5020950;28;45451;-70
2022/04/11 07:22:32;;;;;;;;;6.00;6.00;;;;;9.60;45.27;100746.16;5019656;28;45198;-72
2022/04/11 07:25:01;;;;;;;;;13.50;9.00;;;;;9.75;45.00;100740.13;5021722;28;45490;-70
2022/04/11 07:27:27;;;;;;;;;6.75;6.25;;;;;9.77;44.60;100713.16;5026784;28;45566;-70
2022/04/11 07:29:52;;;;;;;;;8.25;6.75;;;;;9.87;44.51;100721.00;5018704;28;45465;-71
2022/04/11 07:32:18;;;;;;;;;8.00;8.00;;;;;9.97;44.23;100736.78;5023649;28;45483;-71
2022/04/11 07:34:48;;;;;;;;;9.00;8.75;;;;;9.89;44.29;100714.91;5023736;28;45478;-71
2022/04/11 07:37:14;;;;;;;;;9.25;6.75;;;;;10.12;44.02;100732.47;5021954;28;45592;-71
2022/04/11 07:39:40;;;;;;;;;7.50;7.00;;;;;10.18;44.07;100736.00;5021291;28;45366;-71
2022/04/11 07:42:06;;;;;;;;;9.75;8.00;;;;;10.21;44.25;100735.13;5036403;28;45430;-71
2022/04/11 07:44:32;;;;;;;;;7.00;5.25;;;;;9.74;43.90;100633.78;5019510;28;45282;-73
2022/04/11 07:46:58;;;;;;;;;8.50;7.25;;;;;10.14;44.18;100696.72;5017370;28;45372;-74
2022/04/11 07:49:24;;;;;;;;;4.00;4.00;;;;;10.24;44.00;100700.22;5018947;28;45423;-72
2022/04/11 07:51:50;;;;;;;;;4.75;4.75;;;;;10.46;44.00;100728.22;5021439;28;45276;-73
2022/04/11 07:54:16;;;;;;;;;5.00;5.00;;;;;10.65;43.84;100736.13;5018501;28;45426;-71
2022/04/11 07:56:42;;;;;;;;;6.25;5.00;;;;;10.58;43.73;100693.34;5031495;28;46329;-72
2022/04/11 07:59:07;;;;;;;;;5.25;5.25;;;;;10.82;43.52;100716.09;5016665;28;45443;-72
2022/04/11 08:01:33;;;;;;;;;6.75;6.75;;;;;10.87;43.00;100721.31;5018106;28;45419;-72
2022/04/11 08:03:59;;;;;;;;;6.75;4.50;;;;;10.81;43.20;100716.94;5018900;28;45506;-71
2022/04/11 08:06:26;;;;;;;;;8.50;7.00;;;;;10.80;43.21;100708.22;5017679;28;45308;-71
2022/04/11 08:08:51;;;;;;;;;7.25;5.00;;;;;10.84;42.79;100706.44;5017064;28;45644;-70
2022/04/11 08:11:19;;;;;;;;;3.25;3.25;;;;;10.83;43.00;100689.00;5016877;28;45402;-70
2022/04/11 08:13:45;;;;;;;;;7.75;4.00;;;;;10.95;42.48;100701.22;5016976;28;45423;-73
2022/04/11 08:16:11;;;;;;;;;6.25;5.00;;;;;11.00;42.56;100700.34;5016391;28;45453;-71
2022/04/11 08:18:38;;;;;;;;;10.75;4.00;;;;;10.91;42.70;100675.88;5016505;28;45466;-71
2022/04/11 08:21:04;;;;;;;;;5.00;5.00;;;;;10.97;42.67;100679.38;5017163;28;45503;-71
2022/04/11 08:23:31;;;;;;;;;7.50;6.25;;;;;10.91;42.52;100663.66;5016562;28;45410;-72
2022/04/11 08:25:58;;;;;;;;;7.50;7.00;;;;;11.21;42.52;100701.22;5016248;28;45613;-70
2022/04/11 08:28:24;;;;;;;;;6.75;6.25;;;;;11.29;42.40;100704.69;5016055;28;45288;-69
2022/04/11 08:30:50;;;;;;;;;6.25;6.25;;;;;11.42;42.80;100706.44;5015776;28;45530;-71
2022/04/11 08:33:16;;;;;;;;;7.25;5.50;;;;;11.42;42.58;100685.44;5015881;28;45488;-71
2022/04/11 08:35:42;;;;;;;;;6.25;5.25;;;;;11.48;42.30;100670.56;5018831;28;46188;-70
2022/04/11 08:38:07;;;;;;;;;6.25;4.00;;;;;11.59;42.06;100681.91;5035070;28;45618;-71
2022/04/11 08:40:33;;;;;;;;;5.75;5.75;;;;;11.61;41.88;100661.78;5019375;28;45431;-72
2022/04/11 08:42:59;;;;;;;;;7.25;7.25;;;;;11.83;42.30;100680.94;5034877;28;45584;-70
2022/04/11 08:45:27;;;;;;;;;6.50;5.75;;;;;11.74;41.96;100655.59;5019446;28;45307;-71
2022/04/11 08:48:00;;;;;;;;;5.75;5.50;;;;;11.97;41.64;100683.53;5019142;28;45447;-72
2022/04/11 08:50:27;;;;;;;;;6.00;5.50;;;;;11.84;41.45;100640.69;5019538;28;45537;-72
2022/04/11 08:52:54;;;;;;;;;5.75;4.00;;;;;12.12;41.34;100666.84;5019737;28;45539;-71
2022/04/11 08:55:21;;;;;;;;;7.25;4.75;;;;;12.20;41.19;100665.06;5019208;28;45399;-72
2022/04/11 08:57:48;;;;;;;;;4.25;4.00;;;;;12.08;41.33;100621.38;5019173;28;45312;-72
2022/04/11 09:00:16;;;;;;;;;6.25;6.25;;;;;12.43;41.31;100657.00;5019045;28;45397;-70
2022/04/11 09:02:43;;;;;;;;;5.25;5.25;;;;;12.38;40.66;100622.03;5019226;28;45577;-72
2022/04/11 09:05:10;;;;;;;;;6.25;5.25;;;;;12.12;40.48;100561.81;5017760;28;47932;-72
2022/04/11 09:07:53;;;;;;;;;4.25;4.25;;;;;12.75;40.00;100655.91;5018917;28;45323;-72
2022/04/11 09:10:28;;;;;;;;;5.00;4.00;;;;;12.60;40.16;100620.09;5018705;28;45482;-72
2022/04/11 09:12:56;;;;;;;;;7.00;5.00;;;;;12.83;40.57;100633.06;5018808;28;45467;-71
2022/04/11 09:15:25;;;;;;;;;5.00;5.00;;;;;12.87;39.76;100621.63;5018783;28;45802;-73
2022/04/11 09:17:53;;;;;;;;;5.50;4.50;;;;;13.05;39.90;100644.22;5018849;28;45772;-72
2022/04/11 09:20:21;;;;;;;;;5.25;4.25;;;;;13.11;39.48;100649.44;5018702;28;45399;-71
2022/04/11 09:22:48;;;;;;;;;5.00;5.00;;;;;13.20;39.64;100646.72;5018867;28;45543;-72
2022/04/11 09:25:19;;;;;;;;;5.50;5.50;;;;;13.26;39.33;100648.41;5018520;28;46244;-71
2022/04/11 09:27:46;;;;;;;;;4.50;4.50;;;;;13.26;39.44;100633.50;5018465;28;45399;-71
2022/04/11 09:30:27;;;;;;;;;4.25;3.00;;;;;13.35;39.15;100638.69;5017450;28;45898;-75
2022/04/11 09:32:55;;;;;;;;;6.25;4.25;;;;;13.48;39.35;100631.56;5018651;28;45509;-74
2022/04/11 09:35:23;;;;;;;;;6.25;5.00;;;;;13.39;38.50;100586.06;5018469;28;46291;-74
2022/04/11 09:38:08;;;;;;;;;6.25;3.00;;;;;13.65;38.64;100619.97;5033012;28;45437;-72
2022/04/11 09:40:50;;;;;;;;;4.00;4.00;;;;;13.69;38.51;100625.16;5018532;28;45580;-72
2022/04/11 09:43:27;;;;;;;;;4.25;3.00;;;;;13.65;38.23;100598.91;5030098;28;45453;-72
2022/04/11 09:45:53;;;;;;;;;4.00;4.00;;;;;13.67;38.41;100583.97;5038074;28;45442;-71
2022/04/11 09:48:21;;;;;;;;;4.25;2.25;;;;;13.92;38.61;100616.09;5038414;28;45359;-71
2022/04/11 09:50:50;;;;;;;;;1.00;1.00;;;;;13.94;37.86;100607.25;5038673;28;45467;-71
2022/04/11 09:53:24;;;;;;;;;2.75;2.75;;;;;14.04;37.85;100589.56;5038339;28;45453;-73
2022/04/11 09:55:52;;;;;;;;;4.00;4.00;;;;;13.91;37.60;100530.09;5037982;28;45450;-72
2022/04/11 09:58:19;;;;;;;;;3.00;3.00;;;;;14.34;37.11;100587.38;5038380;28;45899;-71
2022/04/11 10:00:45;;;;;;;;;9.00;5.00;;;;;14.35;37.67;100582.06;5038040;28;45485;-71
2022/04/11 10:03:11;;;;;;;;;3.25;3.00;;;;;14.30;37.57;100565.47;5038627;28;45420;-72
2022/04/11 10:05:39;;;;;;;;;4.00;4.00;;;;;14.51;37.45;100609.03;5034300;28;45534;-72
2022/04/11 10:08:14;;;;;;;;;2.67;2.67;;;;;14.49;37.74;100583.63;5017763;28;45384;-72
2022/04/11 10:10:41;;;;;;;;;3.50;3.50;;;;;14.70;37.67;100592.97;5017983;28;45374;-73
2022/04/11 10:13:10;;;;;;;;;4.00;4.00;;;;;14.62;36.92;100550.94;5017716;28;45327;-72
2022/04/11 10:15:38;;;;;;;;;4.00;4.00;;;;;14.87;36.29;100590.91;5017641;28;45421;-73
2022/04/11 10:18:06;;;;;;;;;4.00;4.00;;;;;14.88;36.43;100571.56;5017715;28;45452;-74
2022/04/11 10:20:37;;;;;;;;;5.50;4.00;;;;;14.99;36.50;100579.25;5017929;28;45386;-71
2022/04/11 10:23:30;;;;;;;;;5.50;4.25;;;;;15.02;36.72;100558.13;5033022;28;45417;-73
2022/04/11 10:26:02;;;;;;;;;4.25;4.25;;;;;15.22;35.90;100592.88;5017560;28;45553;-75
2022/04/11 10:28:29;;;;;;;;;4.00;4.00;;;;;15.08;35.83;100559.75;5018817;28;45178;-71
2022/04/11 10:31:12;;;;;;;;;3.00;3.00;;;;;15.29;35.77;100596.28;5017665;28;45505;-71
2022/04/11 10:33:53;;;;;;;;;3.00;3.00;;;;;15.25;36.46;100584.88;5016423;28;45462;-72
2022/04/11 10:36:37;;;;;;;;;4.00;4.00;;;;;15.39;36.17;100594.31;5017365;28;46044;-74
2022/04/11 10:39:15;;;;;;;;;4.67;3.00;;;;;15.48;36.44;100576.53;5031656;28;45294;-73
2022/04/11 10:41:58;;;;;;;;;3.67;2.33;;;;;15.53;35.08;100576.44;5036214;28;45255;-74
2022/04/11 10:44:36;;;;;;;;;9.33;6.00;;;;;15.37;35.37;100541.56;5037656;28;45223;-73
2022/04/11 10:47:08;;;;;;;;;4.00;4.00;;;;;15.57;35.98;100566.69;5035505;28;47747;-73
2022/04/11 10:50:04;;;;;;;;;3.00;3.00;;;;;15.52;35.51;100566.78;5036058;28;45491;-71
2022/04/11 10:52:31;;;;;;;;;5.00;5.00;;;;;15.61;36.42;100552.50;5022204;28;45606;-72
2022/04/11 10:55:07;;;;;;;;;5.00;3.00;;;;;15.45;35.91;100509.75;5037051;28;45353;-72
2022/04/11 10:57:36;;;;;;;;;5.67;4.33;;;;;15.73;35.63;100548.75;5034332;28;46884;-70
2022/04/11 11:00:09;;;;;;;;;3.33;3.33;;;;;15.79;36.33;100554.78;5036328;28;45577;-70
2022/04/11 11:02:49;;;;;;;;;4.33;4.00;;;;;15.88;35.75;100564.28;5037140;28;45326;-71
2022/04/11 11:05:38;;;;;;;;;6.67;3.00;;;;;15.92;35.75;100544.78;5037153;28;45525;-72
2022/04/11 11:08:09;;;;;;;;;2.33;2.33;;;;;16.05;35.85;100537.47;5036980;28;45455;-71
2022/04/11 11:10:53;;;;;;;;;4.00;4.00;;;;;16.15;35.51;100531.03;5037008;28;45275;-70
2022/04/11 11:13:43;;;;;;;;;8.67;4.00;;;;;16.15;36.01;100520.47;5036130;28;45582;-71
2022/04/11 11:16:10;;;;;;;;;6.00;4.33;;;;;16.21;35.04;100520.34;5037197;28;45486;-72
2022/04/11 11:18:51;;;;;;;;;5.00;3.00;;;;;16.28;35.43;100529.00;5036795;28;45422;-72
2022/04/11 11:21:21;;;;;;;;;4.00;4.00;;;;;16.42;35.07;100537.44;5036077;28;45282;-70
2022/04/11 11:24:12;;;;;;;;;4.00;4.00;;;;;16.34;35.48;100491.81;5037289;28;45566;-72
2022/04/11 11:26:52;;;;;;;;;6.00;5.00;;;;;16.62;35.54;100525.47;5036739;28;45395;-72
2022/04/11 11:29:23;;;;;;;;;6.33;5.00;;;;;16.83;35.46;100535.50;5036639;28;45561;-71
2022/04/11 11:31:51;;;;;;;;;6.67;4.00;;;;;16.92;35.80;100550.28;5036577;28;45553;-72
2022/04/11 11:34:20;;;;;;;;;4.00;4.00;;;;;17.02;35.68;100546.47;5037057;28;45537;-73